Terminal Aerodrome Forecast
Issued by NWS

Home | Current Version | Previous Version | Text Only | Print | Product List | Glossary On
Versions: 1 2 3 4 5 6 7 8 9 10 11 12 13 14 15 16
787
FTUS42 KJAX 252325
TAFCRG
TAF
KCRG 252325Z 2600/2624 06004KT P6SM FEW030 BKN250
     FM260400 VRB03KT P6SM SCT030 BKN250
     FM260700 VRB03KT P6SM VCSH SCT020 BKN030
     FM261400 06009KT P6SM VCSH SCT020 BKN030=

USA.gov is the U.S. government's official web portal to all federal, state and local government web resources and services.